sensor_id;sensor_type;location;lat;lon;timestamp;temperature;humidity
16655;DHT22;8441;51.344;7.022;2023-08-07T00:02:05;12.20;99.90
16655;DHT22;8441;51.344;7.022;2023-08-07T00:04:32;12.20;99.90
16655;DHT22;8441;51.344;7.022;2023-08-07T00:06:59;12.20;99.90
16655;DHT22;8441;51.344;7.022;2023-08-07T00:09:27;12.20;99.90
16655;DHT22;8441;51.344;7.022;2023-08-07T00:11:55;12.20;99.90
16655;DHT22;8441;51.344;7.022;2023-08-07T00:14:22;12.20;99.90
16655;DHT22;8441;51.344;7.022;2023-08-07T00:16:49;12.20;99.90
16655;DHT22;8441;51.344;7.022;2023-08-07T00:19:17;12.20;99.90
16655;DHT22;8441;51.344;7.022;2023-08-07T00:21:44;12.20;99.90
16655;DHT22;8441;51.344;7.022;2023-08-07T00:24:11;12.20;99.90
16655;DHT22;8441;51.344;7.022;2023-08-07T00:26:38;12.20;99.90
16655;DHT22;8441;51.344;7.022;2023-08-07T00:29:07;12.20;99.90
16655;DHT22;8441;51.344;7.022;2023-08-07T00:31:34;12.20;99.90
16655;DHT22;8441;51.344;7.022;2023-08-07T00:34:02;12.20;99.90
16655;DHT22;8441;51.344;7.022;2023-08-07T00:36:29;12.20;99.90
16655;DHT22;8441;51.344;7.022;2023-08-07T00:39:00;12.20;99.90
16655;DHT22;8441;51.344;7.022;2023-08-07T00:41:29;12.20;99.90
16655;DHT22;8441;51.344;7.022;2023-08-07T00:43:56;12.20;99.90
16655;DHT22;8441;51.344;7.022;2023-08-07T00:46:24;12.10;99.90
16655;DHT22;8441;51.344;7.022;2023-08-07T00:48:52;12.20;99.90
16655;DHT22;8441;51.344;7.022;2023-08-07T00:51:20;12.20;99.90
16655;DHT22;8441;51.344;7.022;2023-08-07T00:53:48;12.20;99.90
16655;DHT22;8441;51.344;7.022;2023-08-07T00:56:16;12.10;99.90
16655;DHT22;8441;51.344;7.022;2023-08-07T00:58:44;12.10;99.90
16655;DHT22;8441;51.344;7.022;2023-08-07T01:01:11;12.10;99.90
16655;DHT22;8441;51.344;7.022;2023-08-07T01:03:40;12.10;99.90
16655;DHT22;8441;51.344;7.022;2023-08-07T01:06:07;12.10;99.90
16655;DHT22;8441;51.344;7.022;2023-08-07T01:08:35;12.10;99.90
16655;DHT22;8441;51.344;7.022;2023-08-07T01:11:14;12.10;99.90
16655;DHT22;8441;51.344;7.022;2023-08-07T01:13:51;12.10;99.90
16655;DHT22;8441;51.344;7.022;2023-08-07T01:16:28;12.10;99.90
16655;DHT22;8441;51.344;7.022;2023-08-07T01:18:57;12.10;99.90
16655;DHT22;8441;51.344;7.022;2023-08-07T01:21:26;12.10;99.90
16655;DHT22;8441;51.344;7.022;2023-08-07T01:23:55;12.10;99.90
16655;DHT22;8441;51.344;7.022;2023-08-07T01:26:22;12.10;99.90
16655;DHT22;8441;51.344;7.022;2023-08-07T01:29:01;12.10;99.90
16655;DHT22;8441;51.344;7.022;2023-08-07T01:31:32;12.10;99.90
16655;DHT22;8441;51.344;7.022;2023-08-07T01:34:04;12.10;99.90
16655;DHT22;8441;51.344;7.022;2023-08-07T01:36:32;12.10;99.90
16655;DHT22;8441;51.344;7.022;2023-08-07T01:39:02;12.10;99.90
16655;DHT22;8441;51.344;7.022;2023-08-07T01:41:32;12.10;99.90
16655;DHT22;8441;51.344;7.022;2023-08-07T01:44:00;12.10;99.90
16655;DHT22;8441;51.344;7.022;2023-08-07T01:46:29;12.10;99.90
16655;DHT22;8441;51.344;7.022;2023-08-07T01:48:57;12.10;99.90
16655;DHT22;8441;51.344;7.022;2023-08-07T01:51:24;12.10;99.90
16655;DHT22;8441;51.344;7.022;2023-08-07T01:53:51;12.10;99.90
16655;DHT22;8441;51.344;7.022;2023-08-07T01:56:19;12.10;99.90
16655;DHT22;8441;51.344;7.022;2023-08-07T01:58:47;12.10;99.90
16655;DHT22;8441;51.344;7.022;2023-08-07T02:01:14;12.10;99.90
16655;DHT22;8441;51.344;7.022;2023-08-07T02:03:41;12.10;99.90
16655;DHT22;8441;51.344;7.022;2023-08-07T02:06:08;12.10;99.90
16655;DHT22;8441;51.344;7.022;2023-08-07T02:08:35;12.10;99.90
16655;DHT22;8441;51.344;7.022;2023-08-07T02:11:03;12.10;99.90
16655;DHT22;8441;51.344;7.022;2023-08-07T02:13:31;12.00;99.90
16655;DHT22;8441;51.344;7.022;2023-08-07T02:15:59;12.00;99.90
16655;DHT22;8441;51.344;7.022;2023-08-07T02:18:26;12.00;99.90
16655;DHT22;8441;51.344;7.022;2023-08-07T02:20:53;12.00;99.90
16655;DHT22;8441;51.344;7.022;2023-08-07T02:23:20;12.00;99.90
16655;DHT22;8441;51.344;7.022;2023-08-07T02:25:48;12.10;99.90
16655;DHT22;8441;51.344;7.022;2023-08-07T02:28:15;12.10;99.90
16655;DHT22;8441;51.344;7.022;2023-08-07T02:30:46;12.00;99.90
16655;DHT22;8441;51.344;7.022;2023-08-07T02:33:14;12.00;99.90
16655;DHT22;8441;51.344;7.022;2023-08-07T02:35:41;12.00;99.90
16655;DHT22;8441;51.344;7.022;2023-08-07T02:38:08;12.00;99.90
16655;DHT22;8441;51.344;7.022;2023-08-07T02:40:36;12.00;99.90
16655;DHT22;8441;51.344;7.022;2023-08-07T02:43:03;12.00;99.90
16655;DHT22;8441;51.344;7.022;2023-08-07T02:45:30;12.00;99.90
16655;DHT22;8441;51.344;7.022;2023-08-07T02:47:58;12.00;99.90
16655;DHT22;8441;51.344;7.022;2023-08-07T02:50:26;12.00;99.90
16655;DHT22;8441;51.344;7.022;2023-08-07T02:52:55;12.00;99.90
16655;DHT22;8441;51.344;7.022;2023-08-07T02:55:22;12.00;99.90
16655;DHT22;8441;51.344;7.022;2023-08-07T02:57:49;12.00;99.90
16655;DHT22;8441;51.344;7.022;2023-08-07T03:00:17;12.00;99.90
16655;DHT22;8441;51.344;7.022;2023-08-07T03:02:44;12.00;99.90
16655;DHT22;8441;51.344;7.022;2023-08-07T03:05:12;12.00;99.90
16655;DHT22;8441;51.344;7.022;2023-08-07T03:07:40;11.90;99.90
16655;DHT22;8441;51.344;7.022;2023-08-07T03:10:07;12.00;99.90
16655;DHT22;8441;51.344;7.022;2023-08-07T03:12:35;12.00;99.90
16655;DHT22;8441;51.344;7.022;2023-08-07T03:15:03;12.00;99.90
16655;DHT22;8441;51.344;7.022;2023-08-07T03:17:31;12.00;99.90
16655;DHT22;8441;51.344;7.022;2023-08-07T03:19:58;11.90;99.90
16655;DHT22;8441;51.344;7.022;2023-08-07T03:22:27;11.90;99.90
16655;DHT22;8441;51.344;7.022;2023-08-07T03:24:54;11.90;99.90
16655;DHT22;8441;51.344;7.022;2023-08-07T03:27:21;11.90;99.90
16655;DHT22;8441;51.344;7.022;2023-08-07T03:29:48;11.90;99.90
16655;DHT22;8441;51.344;7.022;2023-08-07T03:32:17;11.90;99.90
16655;DHT22;8441;51.344;7.022;2023-08-07T03:34:44;11.90;99.90
16655;DHT22;8441;51.344;7.022;2023-08-07T03:37:11;11.90;99.90
16655;DHT22;8441;51.344;7.022;2023-08-07T03:39:40;11.90;99.90
16655;DHT22;8441;51.344;7.022;2023-08-07T03:42:09;11.90;99.90
16655;DHT22;8441;51.344;7.022;2023-08-07T03:44:36;11.90;99.90
16655;DHT22;8441;51.344;7.022;2023-08-07T03:47:04;11.90;99.90
16655;DHT22;8441;51.344;7.022;2023-08-07T03:49:31;11.90;99.90
16655;DHT22;8441;51.344;7.022;2023-08-07T03:51:58;11.90;99.90
16655;DHT22;8441;51.344;7.022;2023-08-07T03:54:25;12.00;99.90
16655;DHT22;8441;51.344;7.022;2023-08-07T03:56:54;12.00;99.90
16655;DHT22;8441;51.344;7.022;2023-08-07T03:59:21;11.90;99.90
16655;DHT22;8441;51.344;7.022;2023-08-07T04:01:48;11.90;99.90
16655;DHT22;8441;51.344;7.022;2023-08-07T04:04:15;11.90;99.90
16655;DHT22;8441;51.344;7.022;2023-08-07T04:06:43;11.90;99.90
16655;DHT22;8441;51.344;7.022;2023-08-07T04:09:10;11.90;99.90
16655;DHT22;8441;51.344;7.022;2023-08-07T04:11:37;11.90;99.90
16655;DHT22;8441;51.344;7.022;2023-08-07T04:14:06;11.90;99.90
16655;DHT22;8441;51.344;7.022;2023-08-07T04:16:33;11.90;99.90
16655;DHT22;8441;51.344;7.022;2023-08-07T04:19:00;11.90;99.90
16655;DHT22;8441;51.344;7.022;2023-08-07T04:21:27;11.90;99.90
16655;DHT22;8441;51.344;7.022;2023-08-07T04:23:54;11.90;99.90
16655;DHT22;8441;51.344;7.022;2023-08-07T04:26:21;11.90;99.90
16655;DHT22;8441;51.344;7.022;2023-08-07T04:28:49;11.90;99.90
16655;DHT22;8441;51.344;7.022;2023-08-07T04:31:17;12.00;99.90
16655;DHT22;8441;51.344;7.022;2023-08-07T04:33:44;11.90;99.90
16655;DHT22;8441;51.344;7.022;2023-08-07T04:36:11;11.90;99.90
16655;DHT22;8441;51.344;7.022;2023-08-07T04:38:39;11.90;99.90
16655;DHT22;8441;51.344;7.022;2023-08-07T04:41:06;11.90;99.90
16655;DHT22;8441;51.344;7.022;2023-08-07T04:43:33;11.90;99.90
16655;DHT22;8441;51.344;7.022;2023-08-07T04:46:00;11.90;99.90
16655;DHT22;8441;51.344;7.022;2023-08-07T04:48:29;11.90;99.90
16655;DHT22;8441;51.344;7.022;2023-08-07T04:50:57;11.90;99.90
16655;DHT22;8441;51.344;7.022;2023-08-07T04:53:24;12.00;99.90
16655;DHT22;8441;51.344;7.022;2023-08-07T04:55:52;11.90;99.90
16655;DHT22;8441;51.344;7.022;2023-08-07T04:58:19;12.00;99.90
16655;DHT22;8441;51.344;7.022;2023-08-07T05:00:46;11.90;99.90
16655;DHT22;8441;51.344;7.022;2023-08-07T05:03:13;12.00;99.90
16655;DHT22;8441;51.344;7.022;2023-08-07T05:05:45;12.00;99.90
16655;DHT22;8441;51.344;7.022;2023-08-07T05:08:12;12.00;99.90
16655;DHT22;8441;51.344;7.022;2023-08-07T05:10:40;12.00;99.90
16655;DHT22;8441;51.344;7.022;2023-08-07T05:13:07;12.00;99.90
16655;DHT22;8441;51.344;7.022;2023-08-07T05:15:34;12.00;99.90
16655;DHT22;8441;51.344;7.022;2023-08-07T05:18:01;12.00;99.90
16655;DHT22;8441;51.344;7.022;2023-08-07T05:20:29;11.90;99.90
16655;DHT22;8441;51.344;7.022;2023-08-07T05:22:57;12.00;99.90
16655;DHT22;8441;51.344;7.022;2023-08-07T05:25:25;12.00;99.90
16655;DHT22;8441;51.344;7.022;2023-08-07T05:27:52;12.00;99.90
16655;DHT22;8441;51.344;7.022;2023-08-07T05:30:20;11.90;99.90
16655;DHT22;8441;51.344;7.022;2023-08-07T05:32:47;11.90;99.90
16655;DHT22;8441;51.344;7.022;2023-08-07T05:35:14;11.90;99.90
16655;DHT22;8441;51.344;7.022;2023-08-07T05:37:41;11.90;99.90
16655;DHT22;8441;51.344;7.022;2023-08-07T05:40:10;11.90;99.90
16655;DHT22;8441;51.344;7.022;2023-08-07T05:42:38;11.90;99.90
16655;DHT22;8441;51.344;7.022;2023-08-07T05:45:07;11.90;99.90
16655;DHT22;8441;51.344;7.022;2023-08-07T05:47:35;11.90;99.90
16655;DHT22;8441;51.344;7.022;2023-08-07T05:50:03;11.80;99.90
16655;DHT22;8441;51.344;7.022;2023-08-07T05:52:31;11.90;99.90
16655;DHT22;8441;51.344;7.022;2023-08-07T05:54:58;11.90;99.90
16655;DHT22;8441;51.344;7.022;2023-08-07T05:57:27;11.90;99.90
16655;DHT22;8441;51.344;7.022;2023-08-07T05:59:54;11.80;99.90
16655;DHT22;8441;51.344;7.022;2023-08-07T06:02:21;11.80;99.90
16655;DHT22;8441;51.344;7.022;2023-08-07T06:04:48;11.80;99.90
16655;DHT22;8441;51.344;7.022;2023-08-07T06:07:15;11.90;99.90
16655;DHT22;8441;51.344;7.022;2023-08-07T06:09:43;11.90;99.90
16655;DHT22;8441;51.344;7.022;2023-08-07T06:12:10;11.90;99.90
16655;DHT22;8441;51.344;7.022;2023-08-07T06:14:39;11.90;99.90
16655;DHT22;8441;51.344;7.022;2023-08-07T06:17:06;11.90;99.90
16655;DHT22;8441;51.344;7.022;2023-08-07T06:19:33;11.90;99.90
16655;DHT22;8441;51.344;7.022;2023-08-07T06:22:00;11.90;99.90
16655;DHT22;8441;51.344;7.022;2023-08-07T06:24:28;11.90;99.90
16655;DHT22;8441;51.344;7.022;2023-08-07T06:26:55;11.90;99.90
16655;DHT22;8441;51.344;7.022;2023-08-07T06:29:22;11.90;99.90
16655;DHT22;8441;51.344;7.022;2023-08-07T06:31:51;12.00;99.90
16655;DHT22;8441;51.344;7.022;2023-08-07T06:34:18;12.00;99.90
16655;DHT22;8441;51.344;7.022;2023-08-07T06:36:44;12.00;99.90
16655;DHT22;8441;51.344;7.022;2023-08-07T06:39:11;12.00;99.90
16655;DHT22;8441;51.344;7.022;2023-08-07T06:41:38;12.00;99.90
16655;DHT22;8441;51.344;7.022;2023-08-07T06:44:05;12.00;99.90
16655;DHT22;8441;51.344;7.022;2023-08-07T06:46:33;12.00;99.90
16655;DHT22;8441;51.344;7.022;2023-08-07T06:49:02;12.00;99.90
16655;DHT22;8441;51.344;7.022;2023-08-07T06:51:29;12.10;99.90
16655;DHT22;8441;51.344;7.022;2023-08-07T06:53:56;12.10;99.90
16655;DHT22;8441;51.344;7.022;2023-08-07T06:56:23;12.10;99.90
16655;DHT22;8441;51.344;7.022;2023-08-07T06:58:50;12.20;99.90
16655;DHT22;8441;51.344;7.022;2023-08-07T07:01:17;12.20;99.90
16655;DHT22;8441;51.344;7.022;2023-08-07T07:03:45;12.20;99.90
16655;DHT22;8441;51.344;7.022;2023-08-07T07:06:14;12.20;99.90
16655;DHT22;8441;51.344;7.022;2023-08-07T07:08:41;12.30;99.90
16655;DHT22;8441;51.344;7.022;2023-08-07T07:11:08;12.20;99.90
16655;DHT22;8441;51.344;7.022;2023-08-07T07:13:35;12.30;99.90
16655;DHT22;8441;51.344;7.022;2023-08-07T07:16:03;12.30;99.90
16655;DHT22;8441;51.344;7.022;2023-08-07T07:18:30;12.30;99.90
16655;DHT22;8441;51.344;7.022;2023-08-07T07:20:57;12.30;99.90
16655;DHT22;8441;51.344;7.022;2023-08-07T07:23:27;12.40;99.90
16655;DHT22;8441;51.344;7.022;2023-08-07T07:25:54;12.40;99.90
16655;DHT22;8441;51.344;7.022;2023-08-07T07:28:22;12.40;99.90
16655;DHT22;8441;51.344;7.022;2023-08-07T07:30:50;12.40;99.90
16655;DHT22;8441;51.344;7.022;2023-08-07T07:33:17;12.40;99.90
16655;DHT22;8441;51.344;7.022;2023-08-07T07:35:44;12.40;99.90
16655;DHT22;8441;51.344;7.022;2023-08-07T07:38:12;12.40;99.90
16655;DHT22;8441;51.344;7.022;2023-08-07T07:40:41;12.40;99.90
16655;DHT22;8441;51.344;7.022;2023-08-07T07:43:08;12.40;99.90
16655;DHT22;8441;51.344;7.022;2023-08-07T07:45:35;12.40;99.90
16655;DHT22;8441;51.344;7.022;2023-08-07T07:48:03;12.50;99.90
16655;DHT22;8441;51.344;7.022;2023-08-07T07:50:32;12.50;99.90
16655;DHT22;8441;51.344;7.022;2023-08-07T07:52:59;12.40;99.90
16655;DHT22;8441;51.344;7.022;2023-08-07T07:55:26;12.40;99.90
16655;DHT22;8441;51.344;7.022;2023-08-07T07:57:55;12.50;99.90
16655;DHT22;8441;51.344;7.022;2023-08-07T08:00:22;12.40;99.90
16655;DHT22;8441;51.344;7.022;2023-08-07T08:02:52;12.50;99.90
16655;DHT22;8441;51.344;7.022;2023-08-07T08:05:19;12.40;99.90
16655;DHT22;8441;51.344;7.022;2023-08-07T08:07:46;12.40;99.90
16655;DHT22;8441;51.344;7.022;2023-08-07T08:10:14;12.50;99.90
16655;DHT22;8441;51.344;7.022;2023-08-07T08:12:41;12.40;99.90
16655;DHT22;8441;51.344;7.022;2023-08-07T08:15:10;12.50;99.90
16655;DHT22;8441;51.344;7.022;2023-08-07T08:17:37;12.50;99.90
16655;DHT22;8441;51.344;7.022;2023-08-07T08:20:06;12.50;99.90
16655;DHT22;8441;51.344;7.022;2023-08-07T08:22:33;12.50;99.90
16655;DHT22;8441;51.344;7.022;2023-08-07T08:25:01;12.60;99.90
16655;DHT22;8441;51.344;7.022;2023-08-07T08:27:30;12.60;99.90
16655;DHT22;8441;51.344;7.022;2023-08-07T08:29:57;12.60;99.90
16655;DHT22;8441;51.344;7.022;2023-08-07T08:32:26;12.60;99.90
16655;DHT22;8441;51.344;7.022;2023-08-07T08:34:53;12.70;99.90
16655;DHT22;8441;51.344;7.022;2023-08-07T08:37:23;12.80;99.90
16655;DHT22;8441;51.344;7.022;2023-08-07T08:39:50;12.80;99.90
16655;DHT22;8441;51.344;7.022;2023-08-07T08:42:17;12.90;99.90
16655;DHT22;8441;51.344;7.022;2023-08-07T08:44:48;12.90;99.90
16655;DHT22;8441;51.344;7.022;2023-08-07T08:47:18;13.00;99.90
16655;DHT22;8441;51.344;7.022;2023-08-07T08:49:50;13.00;99.90
16655;DHT22;8441;51.344;7.022;2023-08-07T08:52:18;13.00;99.90
16655;DHT22;8441;51.344;7.022;2023-08-07T08:54:47;13.00;99.90
16655;DHT22;8441;51.344;7.022;2023-08-07T08:57:14;13.10;99.90
16655;DHT22;8441;51.344;7.022;2023-08-07T08:59:42;13.20;99.90
16655;DHT22;8441;51.344;7.022;2023-08-07T09:02:09;13.30;99.90
16655;DHT22;8441;51.344;7.022;2023-08-07T09:04:37;13.30;99.90
16655;DHT22;8441;51.344;7.022;2023-08-07T09:07:06;13.40;99.90
16655;DHT22;8441;51.344;7.022;2023-08-07T09:09:33;13.50;99.90
16655;DHT22;8441;51.344;7.022;2023-08-07T09:12:01;13.60;99.90
16655;DHT22;8441;51.344;7.022;2023-08-07T09:14:30;13.80;99.90
16655;DHT22;8441;51.344;7.022;2023-08-07T09:17:01;13.80;99.90
16655;DHT22;8441;51.344;7.022;2023-08-07T09:19:28;13.90;99.90
16655;DHT22;8441;51.344;7.022;2023-08-07T09:21:55;14.00;99.90
16655;DHT22;8441;51.344;7.022;2023-08-07T09:24:24;14.10;99.90
16655;DHT22;8441;51.344;7.022;2023-08-07T09:26:51;14.20;99.90
16655;DHT22;8441;51.344;7.022;2023-08-07T09:29:20;14.50;99.90
16655;DHT22;8441;51.344;7.022;2023-08-07T09:31:49;14.80;99.90
16655;DHT22;8441;51.344;7.022;2023-08-07T09:34:20;14.90;99.90
16655;DHT22;8441;51.344;7.022;2023-08-07T09:36:47;14.80;99.90
16655;DHT22;8441;51.344;7.022;2023-08-07T09:39:14;14.70;99.90
16655;DHT22;8441;51.344;7.022;2023-08-07T09:41:43;14.60;99.90
16655;DHT22;8441;51.344;7.022;2023-08-07T09:44:10;14.40;99.90
16655;DHT22;8441;51.344;7.022;2023-08-07T09:46:44;14.20;99.90
16655;DHT22;8441;51.344;7.022;2023-08-07T09:49:11;14.10;99.90
16655;DHT22;8441;51.344;7.022;2023-08-07T09:51:42;13.90;99.90
16655;DHT22;8441;51.344;7.022;2023-08-07T09:54:10;13.80;99.90
16655;DHT22;8441;51.344;7.022;2023-08-07T09:56:38;13.70;99.90
16655;DHT22;8441;51.344;7.022;2023-08-07T09:59:08;13.80;99.90
16655;DHT22;8441;51.344;7.022;2023-08-07T10:01:37;13.90;99.90
16655;DHT22;8441;51.344;7.022;2023-08-07T10:04:05;14.20;99.90
16655;DHT22;8441;51.344;7.022;2023-08-07T10:06:34;14.50;99.90
16655;DHT22;8441;51.344;7.022;2023-08-07T10:09:02;14.90;99.90
16655;DHT22;8441;51.344;7.022;2023-08-07T10:11:30;14.90;99.90
16655;DHT22;8441;51.344;7.022;2023-08-07T10:13:58;14.80;99.90
16655;DHT22;8441;51.344;7.022;2023-08-07T10:16:27;14.70;99.90
16655;DHT22;8441;51.344;7.022;2023-08-07T10:18:55;14.70;99.90
16655;DHT22;8441;51.344;7.022;2023-08-07T10:21:24;15.00;99.90
16655;DHT22;8441;51.344;7.022;2023-08-07T10:23:53;15.20;99.90
16655;DHT22;8441;51.344;7.022;2023-08-07T10:26:21;15.40;99.90
16655;DHT22;8441;51.344;7.022;2023-08-07T10:28:50;15.60;99.90
16655;DHT22;8441;51.344;7.022;2023-08-07T10:31:20;15.60;99.90
16655;DHT22;8441;51.344;7.022;2023-08-07T10:33:51;15.70;99.90
16655;DHT22;8441;51.344;7.022;2023-08-07T10:36:18;15.80;99.90
16655;DHT22;8441;51.344;7.022;2023-08-07T10:38:49;16.10;99.90
16655;DHT22;8441;51.344;7.022;2023-08-07T10:41:18;16.10;99.90
16655;DHT22;8441;51.344;7.022;2023-08-07T10:43:46;16.30;99.90
16655;DHT22;8441;51.344;7.022;2023-08-07T10:46:15;16.40;99.90
16655;DHT22;8441;51.344;7.022;2023-08-07T10:48:43;16.30;99.90
16655;DHT22;8441;51.344;7.022;2023-08-07T10:51:14;16.10;99.90
16655;DHT22;8441;51.344;7.022;2023-08-07T10:53:43;15.90;99.90
16655;DHT22;8441;51.344;7.022;2023-08-07T10:56:15;15.70;99.90
16655;DHT22;8441;51.344;7.022;2023-08-07T10:58:48;15.60;99.90
16655;DHT22;8441;51.344;7.022;2023-08-07T11:01:39;15.50;99.90
16655;DHT22;8441;51.344;7.022;2023-08-07T11:04:08;15.60;99.90
16655;DHT22;8441;51.344;7.022;2023-08-07T11:06:37;15.50;99.90
16655;DHT22;8441;51.344;7.022;2023-08-07T11:09:07;15.10;99.90
16655;DHT22;8441;51.344;7.022;2023-08-07T11:11:36;14.60;99.90
16655;DHT22;8441;51.344;7.022;2023-08-07T11:14:05;14.20;99.90
16655;DHT22;8441;51.344;7.022;2023-08-07T11:16:33;13.90;99.90
16655;DHT22;8441;51.344;7.022;2023-08-07T11:19:01;13.90;99.90
16655;DHT22;8441;51.344;7.022;2023-08-07T11:21:29;13.90;99.90
16655;DHT22;8441;51.344;7.022;2023-08-07T11:23:58;14.10;99.90
16655;DHT22;8441;51.344;7.022;2023-08-07T11:26:25;14.20;99.90
16655;DHT22;8441;51.344;7.022;2023-08-07T11:28:54;14.30;99.90
16655;DHT22;8441;51.344;7.022;2023-08-07T11:31:22;14.60;99.90
16655;DHT22;8441;51.344;7.022;2023-08-07T11:33:50;14.80;99.90
16655;DHT22;8441;51.344;7.022;2023-08-07T11:36:17;15.10;99.90
16655;DHT22;8441;51.344;7.022;2023-08-07T11:38:45;15.40;99.90
16655;DHT22;8441;51.344;7.022;2023-08-07T11:41:15;15.80;99.90
16655;DHT22;8441;51.344;7.022;2023-08-07T11:43:43;16.30;99.90
16655;DHT22;8441;51.344;7.022;2023-08-07T11:46:11;16.50;99.90
16655;DHT22;8441;51.344;7.022;2023-08-07T11:48:40;16.70;99.90
16655;DHT22;8441;51.344;7.022;2023-08-07T11:51:07;16.70;99.90
16655;DHT22;8441;51.344;7.022;2023-08-07T11:53:35;16.50;99.90
16655;DHT22;8441;51.344;7.022;2023-08-07T11:56:04;16.30;99.90
16655;DHT22;8441;51.344;7.022;2023-08-07T11:58:36;16.10;99.90
16655;DHT22;8441;51.344;7.022;2023-08-07T12:01:06;16.10;99.90
16655;DHT22;8441;51.344;7.022;2023-08-07T12:03:36;16.20;99.90
16655;DHT22;8441;51.344;7.022;2023-08-07T12:06:05;16.10;99.90
16655;DHT22;8441;51.344;7.022;2023-08-07T12:08:34;15.90;99.90
16655;DHT22;8441;51.344;7.022;2023-08-07T12:11:02;15.80;99.90
16655;DHT22;8441;51.344;7.022;2023-08-07T12:13:30;16.00;99.90
16655;DHT22;8441;51.344;7.022;2023-08-07T12:15:59;16.20;99.90
16655;DHT22;8441;51.344;7.022;2023-08-07T12:18:27;16.30;99.90
16655;DHT22;8441;51.344;7.022;2023-08-07T12:20:57;16.20;99.90
16655;DHT22;8441;51.344;7.022;2023-08-07T12:23:25;16.00;99.90
16655;DHT22;8441;51.344;7.022;2023-08-07T12:25:53;15.80;99.90
16655;DHT22;8441;51.344;7.022;2023-08-07T12:28:20;15.90;99.90
16655;DHT22;8441;51.344;7.022;2023-08-07T12:30:48;16.00;99.90
16655;DHT22;8441;51.344;7.022;2023-08-07T12:33:18;15.90;99.90
16655;DHT22;8441;51.344;7.022;2023-08-07T12:35:46;16.00;99.90
16655;DHT22;8441;51.344;7.022;2023-08-07T12:38:13;16.00;99.90
16655;DHT22;8441;51.344;7.022;2023-08-07T12:40:41;16.30;99.90
16655;DHT22;8441;51.344;7.022;2023-08-07T12:43:08;16.50;99.90
16655;DHT22;8441;51.344;7.022;2023-08-07T12:45:35;16.60;99.90
16655;DHT22;8441;51.344;7.022;2023-08-07T12:48:03;16.60;99.90
16655;DHT22;8441;51.344;7.022;2023-08-07T12:50:32;17.00;99.90
16655;DHT22;8441;51.344;7.022;2023-08-07T12:52:59;17.20;99.90
16655;DHT22;8441;51.344;7.022;2023-08-07T12:55:27;17.10;99.90
16655;DHT22;8441;51.344;7.022;2023-08-07T12:57:55;17.00;99.90
16655;DHT22;8441;51.344;7.022;2023-08-07T13:00:23;17.10;99.90
16655;DHT22;8441;51.344;7.022;2023-08-07T13:02:51;17.40;99.90
16655;DHT22;8441;51.344;7.022;2023-08-07T13:05:19;17.40;99.90
16655;DHT22;8441;51.344;7.022;2023-08-07T13:07:48;17.50;99.90
16655;DHT22;8441;51.344;7.022;2023-08-07T13:10:16;17.50;99.90
16655;DHT22;8441;51.344;7.022;2023-08-07T13:12:44;17.30;99.90
16655;DHT22;8441;51.344;7.022;2023-08-07T13:15:14;17.10;99.90
16655;DHT22;8441;51.344;7.022;2023-08-07T13:17:42;17.10;99.90
16655;DHT22;8441;51.344;7.022;2023-08-07T13:20:11;17.30;99.90
16655;DHT22;8441;51.344;7.022;2023-08-07T13:22:39;17.50;99.90
16655;DHT22;8441;51.344;7.022;2023-08-07T13:25:10;17.40;99.90
16655;DHT22;8441;51.344;7.022;2023-08-07T13:27:38;17.40;99.90
16655;DHT22;8441;51.344;7.022;2023-08-07T13:30:07;17.60;99.90
16655;DHT22;8441;51.344;7.022;2023-08-07T13:32:34;17.60;99.90
16655;DHT22;8441;51.344;7.022;2023-08-07T13:35:01;17.60;99.90
16655;DHT22;8441;51.344;7.022;2023-08-07T13:37:29;17.50;99.90
16655;DHT22;8441;51.344;7.022;2023-08-07T13:39:56;17.50;99.90
16655;DHT22;8441;51.344;7.022;2023-08-07T13:42:25;17.50;99.90
16655;DHT22;8441;51.344;7.022;2023-08-07T13:44:54;17.90;99.90
16655;DHT22;8441;51.344;7.022;2023-08-07T13:47:21;18.30;99.90
16655;DHT22;8441;51.344;7.022;2023-08-07T13:49:51;18.50;99.90
16655;DHT22;8441;51.344;7.022;2023-08-07T13:52:19;18.60;99.90
16655;DHT22;8441;51.344;7.022;2023-08-07T13:54:46;18.40;99.90
16655;DHT22;8441;51.344;7.022;2023-08-07T13:57:14;18.50;99.90
16655;DHT22;8441;51.344;7.022;2023-08-07T13:59:42;18.70;99.90
16655;DHT22;8441;51.344;7.022;2023-08-07T14:02:09;18.90;99.90
16655;DHT22;8441;51.344;7.022;2023-08-07T14:04:37;19.00;99.90
16655;DHT22;8441;51.344;7.022;2023-08-07T14:07:05;19.10;99.90
16655;DHT22;8441;51.344;7.022;2023-08-07T14:09:32;19.00;99.90
16655;DHT22;8441;51.344;7.022;2023-08-07T14:11:59;19.00;99.90
16655;DHT22;8441;51.344;7.022;2023-08-07T14:14:26;18.70;99.90
16655;DHT22;8441;51.344;7.022;2023-08-07T14:16:56;18.70;99.90
16655;DHT22;8441;51.344;7.022;2023-08-07T14:19:23;18.70;99.90
16655;DHT22;8441;51.344;7.022;2023-08-07T14:21:50;18.80;99.90
16655;DHT22;8441;51.344;7.022;2023-08-07T14:24:17;18.80;99.90
16655;DHT22;8441;51.344;7.022;2023-08-07T14:26:44;18.80;99.90
16655;DHT22;8441;51.344;7.022;2023-08-07T14:29:13;18.70;99.90
16655;DHT22;8441;51.344;7.022;2023-08-07T14:31:40;18.70;99.90
16655;DHT22;8441;51.344;7.022;2023-08-07T14:34:08;18.70;99.90
16655;DHT22;8441;51.344;7.022;2023-08-07T14:36:36;18.70;99.90
16655;DHT22;8441;51.344;7.022;2023-08-07T14:39:03;18.50;99.90
16655;DHT22;8441;51.344;7.022;2023-08-07T14:41:30;18.50;99.90
16655;DHT22;8441;51.344;7.022;2023-08-07T14:43:58;18.50;99.90
16655;DHT22;8441;51.344;7.022;2023-08-07T14:46:25;18.60;99.90
16655;DHT22;8441;51.344;7.022;2023-08-07T14:48:52;18.80;99.90
16655;DHT22;8441;51.344;7.022;2023-08-07T14:51:21;18.90;99.90
16655;DHT22;8441;51.344;7.022;2023-08-07T14:53:48;18.90;99.90
16655;DHT22;8441;51.344;7.022;2023-08-07T14:56:15;18.80;99.90
16655;DHT22;8441;51.344;7.022;2023-08-07T14:58:42;18.70;99.90
16655;DHT22;8441;51.344;7.022;2023-08-07T15:01:09;18.70;99.90
16655;DHT22;8441;51.344;7.022;2023-08-07T15:03:36;18.70;99.90
16655;DHT22;8441;51.344;7.022;2023-08-07T15:06:03;18.60;99.90
16655;DHT22;8441;51.344;7.022;2023-08-07T15:08:33;18.40;99.90
16655;DHT22;8441;51.344;7.022;2023-08-07T15:11:00;18.20;99.90
16655;DHT22;8441;51.344;7.022;2023-08-07T15:13:27;18.10;99.90
16655;DHT22;8441;51.344;7.022;2023-08-07T15:15:55;18.10;99.90
16655;DHT22;8441;51.344;7.022;2023-08-07T15:18:22;18.10;99.90
16655;DHT22;8441;51.344;7.022;2023-08-07T15:20:50;18.00;99.90
16655;DHT22;8441;51.344;7.022;2023-08-07T15:23:17;18.10;99.90
16655;DHT22;8441;51.344;7.022;2023-08-07T15:25:45;18.10;99.90
16655;DHT22;8441;51.344;7.022;2023-08-07T15:28:13;18.00;99.90
16655;DHT22;8441;51.344;7.022;2023-08-07T15:30:47;17.90;99.90
16655;DHT22;8441;51.344;7.022;2023-08-07T15:33:15;17.90;99.90
16655;DHT22;8441;51.344;7.022;2023-08-07T15:35:42;18.00;99.90
16655;DHT22;8441;51.344;7.022;2023-08-07T15:38:09;18.00;99.90
16655;DHT22;8441;51.344;7.022;2023-08-07T15:40:38;18.00;99.90
16655;DHT22;8441;51.344;7.022;2023-08-07T15:43:07;17.90;99.90
16655;DHT22;8441;51.344;7.022;2023-08-07T15:45:35;17.90;99.90
16655;DHT22;8441;51.344;7.022;2023-08-07T15:48:03;17.80;99.90
16655;DHT22;8441;51.344;7.022;2023-08-07T15:50:30;17.90;99.90